sensor_id;sensor_type;location;lat;lon;timestamp;P1;durP1;ratioP1;P2;durP2;ratioP2
65018;SDS011;66069;51.164;-114.452;2023-03-03T00:09:09;0.75;;;0.20;;
65018;SDS011;66069;51.164;-114.452;2023-03-03T00:11:49;0.52;;;0.20;;
65018;SDS011;66069;51.164;-114.452;2023-03-03T00:14:24;1.25;;;0.25;;
65018;SDS011;66069;51.164;-114.452;2023-03-03T00:16:54;1.00;;;0.20;;
65018;SDS011;66069;51.164;-114.452;2023-03-03T00:19:22;0.65;;;0.30;;
65018;SDS011;66069;51.164;-114.452;2023-03-03T00:21:49;0.68;;;0.25;;
65018;SDS011;66069;51.164;-114.452;2023-03-03T00:24:20;0.77;;;0.20;;
65018;SDS011;66069;51.164;-114.452;2023-03-03T00:26:53;1.77;;;0.40;;
65018;SDS011;66069;51.164;-114.452;2023-03-03T00:29:32;0.80;;;0.20;;
65018;SDS011;66069;51.164;-114.452;2023-03-03T00:37:58;1.55;;;0.20;;
65018;SDS011;66069;51.164;-114.452;2023-03-03T00:43:09;0.38;;;0.20;;
65018;SDS011;66069;51.164;-114.452;2023-03-03T00:45:46;1.67;;;0.20;;
65018;SDS011;66069;51.164;-114.452;2023-03-03T00:48:18;1.52;;;0.22;;
65018;SDS011;66069;51.164;-114.452;2023-03-03T00:54:13;0.93;;;0.50;;
65018;SDS011;66069;51.164;-114.452;2023-03-03T00:56:40;1.60;;;0.43;;
65018;SDS011;66069;51.164;-114.452;2023-03-03T00:59:06;0.73;;;0.30;;
65018;SDS011;66069;51.164;-114.452;2023-03-03T01:01:35;1.10;;;0.30;;
65018;SDS011;66069;51.164;-114.452;2023-03-03T01:04:08;1.52;;;0.80;;
65018;SDS011;66069;51.164;-114.452;2023-03-03T01:06:35;1.30;;;0.38;;
65018;SDS011;66069;51.164;-114.452;2023-03-03T01:09:01;1.10;;;0.40;;
65018;SDS011;66069;51.164;-114.452;2023-03-03T01:11:27;0.57;;;0.30;;
65018;SDS011;66069;51.164;-114.452;2023-03-03T01:14:00;0.68;;;0.25;;
65018;SDS011;66069;51.164;-114.452;2023-03-03T01:16:48;1.48;;;0.30;;
65018;SDS011;66069;51.164;-114.452;2023-03-03T01:19:14;1.58;;;0.40;;
65018;SDS011;66069;51.164;-114.452;2023-03-03T01:21:41;2.13;;;0.38;;
65018;SDS011;66069;51.164;-114.452;2023-03-03T01:24:07;1.35;;;0.40;;
65018;SDS011;66069;51.164;-114.452;2023-03-03T01:26:34;0.95;;;0.30;;
65018;SDS011;66069;51.164;-114.452;2023-03-03T01:29:00;1.13;;;0.30;;
65018;SDS011;66069;51.164;-114.452;2023-03-03T01:31:26;1.90;;;0.50;;
65018;SDS011;66069;51.164;-114.452;2023-03-03T01:33:53;1.05;;;0.30;;
65018;SDS011;66069;51.164;-114.452;2023-03-03T01:36:22;1.33;;;0.32;;
65018;SDS011;66069;51.164;-114.452;2023-03-03T01:41:15;2.10;;;0.50;;
65018;SDS011;66069;51.164;-114.452;2023-03-03T01:43:46;0.85;;;0.32;;
65018;SDS011;66069;51.164;-114.452;2023-03-03T01:48:50;2.40;;;0.47;;
65018;SDS011;66069;51.164;-114.452;2023-03-03T01:51:28;0.55;;;0.30;;
65018;SDS011;66069;51.164;-114.452;2023-03-03T01:54:04;0.80;;;0.40;;
65018;SDS011;66069;51.164;-114.452;2023-03-03T01:56:35;0.55;;;0.32;;
65018;SDS011;66069;51.164;-114.452;2023-03-03T01:59:21;0.77;;;0.40;;
65018;SDS011;66069;51.164;-114.452;2023-03-03T02:01:57;1.80;;;0.37;;
65018;SDS011;66069;51.164;-114.452;2023-03-03T02:04:23;0.88;;;0.28;;
65018;SDS011;66069;51.164;-114.452;2023-03-03T02:06:53;0.90;;;0.40;;
65018;SDS011;66069;51.164;-114.452;2023-03-03T02:12:17;1.23;;;0.50;;
65018;SDS011;66069;51.164;-114.452;2023-03-03T02:14:47;0.68;;;0.25;;
65018;SDS011;66069;51.164;-114.452;2023-03-03T02:17:15;0.73;;;0.30;;
65018;SDS011;66069;51.164;-114.452;2023-03-03T02:22:40;1.17;;;0.35;;
65018;SDS011;66069;51.164;-114.452;2023-03-03T02:25:17;2.75;;;0.40;;
65018;SDS011;66069;51.164;-114.452;2023-03-03T02:27:52;0.65;;;0.40;;
65018;SDS011;66069;51.164;-114.452;2023-03-03T02:30:19;1.05;;;0.40;;
65018;SDS011;66069;51.164;-114.452;2023-03-03T02:32:46;2.38;;;0.50;;
65018;SDS011;66069;51.164;-114.452;2023-03-03T02:35:29;0.65;;;0.32;;
65018;SDS011;66069;51.164;-114.452;2023-03-03T02:43:32;0.88;;;0.32;;
65018;SDS011;66069;51.164;-114.452;2023-03-03T02:46:07;1.20;;;0.30;;
65018;SDS011;66069;51.164;-114.452;2023-03-03T02:48:33;0.70;;;0.30;;
65018;SDS011;66069;51.164;-114.452;2023-03-03T02:50:59;1.80;;;0.40;;
65018;SDS011;66069;51.164;-114.452;2023-03-03T02:53:26;0.50;;;0.22;;
65018;SDS011;66069;51.164;-114.452;2023-03-03T02:55:52;1.38;;;0.40;;
65018;SDS011;66069;51.164;-114.452;2023-03-03T02:58:18;1.55;;;0.40;;
65018;SDS011;66069;51.164;-114.452;2023-03-03T03:00:45;0.98;;;0.40;;
65018;SDS011;66069;51.164;-114.452;2023-03-03T03:03:14;0.57;;;0.30;;
65018;SDS011;66069;51.164;-114.452;2023-03-03T03:05:40;0.75;;;0.30;;
65018;SDS011;66069;51.164;-114.452;2023-03-03T03:08:06;1.90;;;0.40;;
65018;SDS011;66069;51.164;-114.452;2023-03-03T03:10:33;0.43;;;0.20;;
65018;SDS011;66069;51.164;-114.452;2023-03-03T03:13:21;0.75;;;0.20;;
65018;SDS011;66069;51.164;-114.452;2023-03-03T03:15:50;0.60;;;0.30;;
65018;SDS011;66069;51.164;-114.452;2023-03-03T03:18:16;0.70;;;0.30;;
65018;SDS011;66069;51.164;-114.452;2023-03-03T03:20:43;0.73;;;0.28;;
65018;SDS011;66069;51.164;-114.452;2023-03-03T03:23:11;0.77;;;0.30;;
65018;SDS011;66069;51.164;-114.452;2023-03-03T03:26:02;0.63;;;0.32;;
65018;SDS011;66069;51.164;-114.452;2023-03-03T03:28:29;1.17;;;0.30;;
65018;SDS011;66069;51.164;-114.452;2023-03-03T03:30:57;1.33;;;0.30;;
65018;SDS011;66069;51.164;-114.452;2023-03-03T03:33:23;0.40;;;0.20;;
65018;SDS011;66069;51.164;-114.452;2023-03-03T03:35:52;0.95;;;0.20;;
65018;SDS011;66069;51.164;-114.452;2023-03-03T03:38:20;1.13;;;0.35;;
65018;SDS011;66069;51.164;-114.452;2023-03-03T03:40:47;1.50;;;0.40;;
65018;SDS011;66069;51.164;-114.452;2023-03-03T03:43:14;0.17;;;0.10;;
65018;SDS011;66069;51.164;-114.452;2023-03-03T03:45:43;0.95;;;0.38;;
65018;SDS011;66069;51.164;-114.452;2023-03-03T03:48:19;0.68;;;0.30;;
65018;SDS011;66069;51.164;-114.452;2023-03-03T03:50:51;0.30;;;0.20;;
65018;SDS011;66069;51.164;-114.452;2023-03-03T03:53:18;0.68;;;0.35;;
65018;SDS011;66069;51.164;-114.452;2023-03-03T03:55:44;1.85;;;0.40;;
65018;SDS011;66069;51.164;-114.452;2023-03-03T03:58:36;1.27;;;0.45;;
65018;SDS011;66069;51.164;-114.452;2023-03-03T04:01:03;1.00;;;0.30;;
65018;SDS011;66069;51.164;-114.452;2023-03-03T04:03:53;1.65;;;0.35;;
65018;SDS011;66069;51.164;-114.452;2023-03-03T04:06:29;1.95;;;0.50;;
65018;SDS011;66069;51.164;-114.452;2023-03-03T04:09:06;0.68;;;0.30;;
65018;SDS011;66069;51.164;-114.452;2023-03-03T04:14:01;0.63;;;0.20;;
65018;SDS011;66069;51.164;-114.452;2023-03-03T04:16:49;1.58;;;0.50;;
65018;SDS011;66069;51.164;-114.452;2023-03-03T04:19:15;1.95;;;0.45;;
65018;SDS011;66069;51.164;-114.452;2023-03-03T04:22:01;1.40;;;0.65;;
65018;SDS011;66069;51.164;-114.452;2023-03-03T04:24:47;0.82;;;0.30;;
65018;SDS011;66069;51.164;-114.452;2023-03-03T04:27:36;2.72;;;0.63;;
65018;SDS011;66069;51.164;-114.452;2023-03-03T04:30:03;1.05;;;0.50;;
65018;SDS011;66069;51.164;-114.452;2023-03-03T04:32:31;1.15;;;0.50;;
65018;SDS011;66069;51.164;-114.452;2023-03-03T04:35:00;2.20;;;0.83;;
65018;SDS011;66069;51.164;-114.452;2023-03-03T04:37:29;0.82;;;0.40;;
65018;SDS011;66069;51.164;-114.452;2023-03-03T04:40:43;1.15;;;0.50;;
65018;SDS011;66069;51.164;-114.452;2023-03-03T04:43:10;1.02;;;0.40;;
65018;SDS011;66069;51.164;-114.452;2023-03-03T04:45:36;1.25;;;0.47;;
65018;SDS011;66069;51.164;-114.452;2023-03-03T04:48:03;1.30;;;0.50;;
65018;SDS011;66069;51.164;-114.452;2023-03-03T04:50:29;1.08;;;0.50;;
65018;SDS011;66069;51.164;-114.452;2023-03-03T04:52:56;0.90;;;0.50;;
65018;SDS011;66069;51.164;-114.452;2023-03-03T04:55:22;1.65;;;0.60;;
65018;SDS011;66069;51.164;-114.452;2023-03-03T04:58:08;1.27;;;0.50;;
65018;SDS011;66069;51.164;-114.452;2023-03-03T05:00:42;1.17;;;0.47;;
65018;SDS011;66069;51.164;-114.452;2023-03-03T05:03:44;2.42;;;0.40;;
65018;SDS011;66069;51.164;-114.452;2023-03-03T05:06:11;2.28;;;0.55;;
65018;SDS011;66069;51.164;-114.452;2023-03-03T05:08:37;1.60;;;0.50;;
65018;SDS011;66069;51.164;-114.452;2023-03-03T05:11:04;1.65;;;0.60;;
65018;SDS011;66069;51.164;-114.452;2023-03-03T05:13:30;1.58;;;0.60;;
65018;SDS011;66069;51.164;-114.452;2023-03-03T05:15:58;1.13;;;0.60;;
65018;SDS011;66069;51.164;-114.452;2023-03-03T05:18:49;2.30;;;0.70;;
65018;SDS011;66069;51.164;-114.452;2023-03-03T05:21:15;1.48;;;0.60;;
65018;SDS011;66069;51.164;-114.452;2023-03-03T05:23:42;1.42;;;0.60;;
65018;SDS011;66069;51.164;-114.452;2023-03-03T05:26:08;1.55;;;0.40;;
65018;SDS011;66069;51.164;-114.452;2023-03-03T05:28:35;1.80;;;0.45;;
65018;SDS011;66069;51.164;-114.452;2023-03-03T05:31:21;1.65;;;0.50;;
65018;SDS011;66069;51.164;-114.452;2023-03-03T05:33:52;0.70;;;0.40;;
65018;SDS011;66069;51.164;-114.452;2023-03-03T05:36:31;1.60;;;0.65;;
65018;SDS011;66069;51.164;-114.452;2023-03-03T05:39:02;1.25;;;0.60;;
65018;SDS011;66069;51.164;-114.452;2023-03-03T05:41:29;2.08;;;0.90;;
65018;SDS011;66069;51.164;-114.452;2023-03-03T05:43:55;1.17;;;0.50;;
65018;SDS011;66069;51.164;-114.452;2023-03-03T05:46:24;2.35;;;0.75;;
65018;SDS011;66069;51.164;-114.452;2023-03-03T05:48:51;1.83;;;0.52;;
65018;SDS011;66069;51.164;-114.452;2023-03-03T05:51:17;1.30;;;0.55;;
65018;SDS011;66069;51.164;-114.452;2023-03-03T05:53:43;1.75;;;0.50;;
65018;SDS011;66069;51.164;-114.452;2023-03-03T05:56:10;1.90;;;0.80;;
65018;SDS011;66069;51.164;-114.452;2023-03-03T05:58:36;1.38;;;0.50;;
65018;SDS011;66069;51.164;-114.452;2023-03-03T06:01:02;1.83;;;0.70;;
65018;SDS011;66069;51.164;-114.452;2023-03-03T06:03:29;1.33;;;0.40;;
65018;SDS011;66069;51.164;-114.452;2023-03-03T06:05:56;1.23;;;0.50;;
65018;SDS011;66069;51.164;-114.452;2023-03-03T06:08:22;1.05;;;0.40;;
65018;SDS011;66069;51.164;-114.452;2023-03-03T06:10:58;1.58;;;0.60;;
65018;SDS011;66069;51.164;-114.452;2023-03-03T06:13:24;0.80;;;0.43;;
65018;SDS011;66069;51.164;-114.452;2023-03-03T06:16:10;2.50;;;0.40;;
65018;SDS011;66069;51.164;-114.452;2023-03-03T06:18:41;1.77;;;0.40;;
65018;SDS011;66069;51.164;-114.452;2023-03-03T06:21:11;1.83;;;0.60;;
65018;SDS011;66069;51.164;-114.452;2023-03-03T06:23:38;2.00;;;0.68;;
65018;SDS011;66069;51.164;-114.452;2023-03-03T06:26:05;1.27;;;0.47;;
65018;SDS011;66069;51.164;-114.452;2023-03-03T06:28:32;0.73;;;0.30;;
65018;SDS011;66069;51.164;-114.452;2023-03-03T06:30:58;1.08;;;0.43;;
65018;SDS011;66069;51.164;-114.452;2023-03-03T06:33:24;1.65;;;0.68;;
65018;SDS011;66069;51.164;-114.452;2023-03-03T06:35:51;1.42;;;0.40;;
65018;SDS011;66069;51.164;-114.452;2023-03-03T06:38:55;1.17;;;0.47;;
65018;SDS011;66069;51.164;-114.452;2023-03-03T06:41:41;2.03;;;0.60;;
65018;SDS011;66069;51.164;-114.452;2023-03-03T06:44:08;0.93;;;0.40;;
65018;SDS011;66069;51.164;-114.452;2023-03-03T06:46:36;0.68;;;0.38;;
65018;SDS011;66069;51.164;-114.452;2023-03-03T06:49:03;0.70;;;0.32;;
65018;SDS011;66069;51.164;-114.452;2023-03-03T06:51:30;0.70;;;0.30;;
65018;SDS011;66069;51.164;-114.452;2023-03-03T06:54:11;1.55;;;0.50;;
65018;SDS011;66069;51.164;-114.452;2023-03-03T06:56:42;0.95;;;0.40;;
65018;SDS011;66069;51.164;-114.452;2023-03-03T06:59:10;1.00;;;0.50;;
65018;SDS011;66069;51.164;-114.452;2023-03-03T07:01:43;1.10;;;0.43;;
65018;SDS011;66069;51.164;-114.452;2023-03-03T07:04:21;0.70;;;0.30;;
65018;SDS011;66069;51.164;-114.452;2023-03-03T07:07:31;1.23;;;0.50;;
65018;SDS011;66069;51.164;-114.452;2023-03-03T07:09:58;1.77;;;0.50;;
65018;SDS011;66069;51.164;-114.452;2023-03-03T07:12:25;1.25;;;0.40;;
65018;SDS011;66069;51.164;-114.452;2023-03-03T07:15:15;0.77;;;0.32;;
65018;SDS011;66069;51.164;-114.452;2023-03-03T07:17:49;1.25;;;0.45;;
65018;SDS011;66069;51.164;-114.452;2023-03-03T07:20:37;0.85;;;0.40;;
65018;SDS011;66069;51.164;-114.452;2023-03-03T07:23:14;0.70;;;0.38;;
65018;SDS011;66069;51.164;-114.452;2023-03-03T07:25:44;1.23;;;0.50;;
65018;SDS011;66069;51.164;-114.452;2023-03-03T07:34:24;0.55;;;0.30;;
65018;SDS011;66069;51.164;-114.452;2023-03-03T07:37:08;0.80;;;0.35;;
65018;SDS011;66069;51.164;-114.452;2023-03-03T07:39:56;1.20;;;0.40;;
65018;SDS011;66069;51.164;-114.452;2023-03-03T07:42:24;1.15;;;0.50;;
65018;SDS011;66069;51.164;-114.452;2023-03-03T07:44:53;1.25;;;0.30;;
65018;SDS011;66069;51.164;-114.452;2023-03-03T07:47:38;1.38;;;0.40;;
65018;SDS011;66069;51.164;-114.452;2023-03-03T07:50:22;0.93;;;0.55;;
65018;SDS011;66069;51.164;-114.452;2023-03-03T07:52:57;0.77;;;0.30;;
65018;SDS011;66069;51.164;-114.452;2023-03-03T07:55:34;1.27;;;0.30;;
65018;SDS011;66069;51.164;-114.452;2023-03-03T08:03:41;1.10;;;0.43;;
65018;SDS011;66069;51.164;-114.452;2023-03-03T08:09:01;1.02;;;0.40;;
65018;SDS011;66069;51.164;-114.452;2023-03-03T08:12:11;0.70;;;0.30;;
65018;SDS011;66069;51.164;-114.452;2023-03-03T08:14:42;0.70;;;0.43;;
65018;SDS011;66069;51.164;-114.452;2023-03-03T08:17:13;0.55;;;0.20;;
65018;SDS011;66069;51.164;-114.452;2023-03-03T08:19:45;1.15;;;0.50;;
65018;SDS011;66069;51.164;-114.452;2023-03-03T08:22:18;1.67;;;0.73;;
65018;SDS011;66069;51.164;-114.452;2023-03-03T08:25:05;0.85;;;0.50;;
65018;SDS011;66069;51.164;-114.452;2023-03-03T08:27:31;1.95;;;0.52;;
65018;SDS011;66069;51.164;-114.452;2023-03-03T08:29:57;1.48;;;0.50;;
65018;SDS011;66069;51.164;-114.452;2023-03-03T08:32:43;0.85;;;0.40;;
65018;SDS011;66069;51.164;-114.452;2023-03-03T08:35:10;1.02;;;0.40;;
65018;SDS011;66069;51.164;-114.452;2023-03-03T08:37:36;0.80;;;0.40;;
65018;SDS011;66069;51.164;-114.452;2023-03-03T08:40:02;1.05;;;0.40;;
65018;SDS011;66069;51.164;-114.452;2023-03-03T08:42:29;0.80;;;0.20;;
65018;SDS011;66069;51.164;-114.452;2023-03-03T08:44:55;2.50;;;0.68;;
65018;SDS011;66069;51.164;-114.452;2023-03-03T08:47:22;1.38;;;0.47;;
65018;SDS011;66069;51.164;-114.452;2023-03-03T08:49:48;2.15;;;0.60;;
65018;SDS011;66069;51.164;-114.452;2023-03-03T08:52:14;0.65;;;0.32;;
65018;SDS011;66069;51.164;-114.452;2023-03-03T08:54:41;0.50;;;0.30;;
65018;SDS011;66069;51.164;-114.452;2023-03-03T08:57:07;1.02;;;0.50;;
65018;SDS011;66069;51.164;-114.452;2023-03-03T08:59:34;0.40;;;0.30;;
65018;SDS011;66069;51.164;-114.452;2023-03-03T09:02:03;1.15;;;0.40;;
65018;SDS011;66069;51.164;-114.452;2023-03-03T09:04:31;0.95;;;0.30;;
65018;SDS011;66069;51.164;-114.452;2023-03-03T09:06:57;1.38;;;0.40;;
65018;SDS011;66069;51.164;-114.452;2023-03-03T09:09:24;0.90;;;0.40;;
65018;SDS011;66069;51.164;-114.452;2023-03-03T09:11:52;0.63;;;0.30;;
65018;SDS011;66069;51.164;-114.452;2023-03-03T09:14:38;0.57;;;0.32;;
65018;SDS011;66069;51.164;-114.452;2023-03-03T09:17:07;0.95;;;0.40;;
65018;SDS011;66069;51.164;-114.452;2023-03-03T09:19:50;1.60;;;0.30;;
65018;SDS011;66069;51.164;-114.452;2023-03-03T09:22:46;0.70;;;0.30;;
65018;SDS011;66069;51.164;-114.452;2023-03-03T09:25:33;0.82;;;0.40;;
65018;SDS011;66069;51.164;-114.452;2023-03-03T09:28:02;1.92;;;0.40;;
65018;SDS011;66069;51.164;-114.452;2023-03-03T09:30:38;0.30;;;0.20;;
65018;SDS011;66069;51.164;-114.452;2023-03-03T09:36:11;0.80;;;0.40;;
65018;SDS011;66069;51.164;-114.452;2023-03-03T09:38:55;1.33;;;0.30;;
65018;SDS011;66069;51.164;-114.452;2023-03-03T09:49:52;0.68;;;0.38;;
65018;SDS011;66069;51.164;-114.452;2023-03-03T09:58:12;0.70;;;0.30;;
65018;SDS011;66069;51.164;-114.452;2023-03-03T10:03:54;0.93;;;0.50;;
65018;SDS011;66069;51.164;-114.452;2023-03-03T10:09:56;1.15;;;0.47;;
65018;SDS011;66069;51.164;-114.452;2023-03-03T10:13:12;0.55;;;0.30;;
65018;SDS011;66069;51.164;-114.452;2023-03-03T10:16:17;0.88;;;0.40;;
65018;SDS011;66069;51.164;-114.452;2023-03-03T10:25:06;0.65;;;0.30;;
65018;SDS011;66069;51.164;-114.452;2023-03-03T10:41:38;0.80;;;0.32;;
65018;SDS011;66069;51.164;-114.452;2023-03-03T11:00:26;0.38;;;0.20;;
65018;SDS011;66069;51.164;-114.452;2023-03-03T11:05:44;0.30;;;0.20;;
65018;SDS011;66069;51.164;-114.452;2023-03-03T11:08:48;0.40;;;0.20;;
65018;SDS011;66069;51.164;-114.452;2023-03-03T11:16:57;0.73;;;0.30;;
65018;SDS011;66069;51.164;-114.452;2023-03-03T11:27:52;0.63;;;0.30;;
65018;SDS011;66069;51.164;-114.452;2023-03-03T11:33:14;0.45;;;0.25;;
65018;SDS011;66069;51.164;-114.452;2023-03-03T11:36:33;0.57;;;0.15;;
65018;SDS011;66069;51.164;-114.452;2023-03-03T11:39:08;0.30;;;0.20;;
65018;SDS011;66069;51.164;-114.452;2023-03-03T11:41:41;0.90;;;0.30;;
65018;SDS011;66069;51.164;-114.452;2023-03-03T11:44:32;0.45;;;0.30;;
65018;SDS011;66069;51.164;-114.452;2023-03-03T11:47:04;0.30;;;0.20;;
65018;SDS011;66069;51.164;-114.452;2023-03-03T11:49:55;0.52;;;0.30;;
65018;SDS011;66069;51.164;-114.452;2023-03-03T11:55:28;0.40;;;0.20;;
65018;SDS011;66069;51.164;-114.452;2023-03-03T11:58:19;0.45;;;0.30;;
65018;SDS011;66069;51.164;-114.452;2023-03-03T12:01:17;1.05;;;0.63;;
65018;SDS011;66069;51.164;-114.452;2023-03-03T12:09:54;0.82;;;0.20;;
65018;SDS011;66069;51.164;-114.452;2023-03-03T12:12:32;0.43;;;0.20;;
65018;SDS011;66069;51.164;-114.452;2023-03-03T12:20:24;0.45;;;0.20;;
65018;SDS011;66069;51.164;-114.452;2023-03-03T12:28:57;0.52;;;0.28;;
65018;SDS011;66069;51.164;-114.452;2023-03-03T12:31:53;0.17;;;0.17;;
65018;SDS011;66069;51.164;-114.452;2023-03-03T12:34:30;0.52;;;0.20;;
65018;SDS011;66069;51.164;-114.452;2023-03-03T12:55:49;0.25;;;0.15;;
65018;SDS011;66069;51.164;-114.452;2023-03-03T13:03:37;0.50;;;0.20;;
65018;SDS011;66069;51.164;-114.452;2023-03-03T13:07:18;0.10;;;0.10;;
65018;SDS011;66069;51.164;-114.452;2023-03-03T13:10:07;0.40;;;0.20;;
65018;SDS011;66069;51.164;-114.452;2023-03-03T13:12:50;0.68;;;0.25;;
65018;SDS011;66069;51.164;-114.452;2023-03-03T13:24:06;0.15;;;0.10;;
65018;SDS011;66069;51.164;-114.452;2023-03-03T13:29:31;0.28;;;0.20;;
65018;SDS011;66069;51.164;-114.452;2023-03-03T13:32:13;0.88;;;0.30;;
65018;SDS011;66069;51.164;-114.452;2023-03-03T13:34:54;0.22;;;0.10;;
65018;SDS011;66069;51.164;-114.452;2023-03-03T13:37:41;0.68;;;0.30;;
65018;SDS011;66069;51.164;-114.452;2023-03-03T13:48:34;0.28;;;0.10;;
65018;SDS011;66069;51.164;-114.452;2023-03-03T13:51:25;0.52;;;0.20;;
65018;SDS011;66069;51.164;-114.452;2023-03-03T13:54:15;0.95;;;0.20;;
65018;SDS011;66069;51.164;-114.452;2023-03-03T14:11:16;0.10;;;0.10;;
65018;SDS011;66069;51.164;-114.452;2023-03-03T14:25:12;0.65;;;0.20;;
65018;SDS011;66069;51.164;-114.452;2023-03-03T14:28:08;0.25;;;0.10;;
65018;SDS011;66069;51.164;-114.452;2023-03-03T14:30:39;0.20;;;0.10;;
65018;SDS011;66069;51.164;-114.452;2023-03-03T14:35:34;0.20;;;0.15;;
65018;SDS011;66069;51.164;-114.452;2023-03-03T14:38:40;0.28;;;0.10;;
65018;SDS011;66069;51.164;-114.452;2023-03-03T14:43:37;0.10;;;0.10;;
65018;SDS011;66069;51.164;-114.452;2023-03-03T14:49:01;0.20;;;0.20;;
65018;SDS011;66069;51.164;-114.452;2023-03-03T14:51:48;0.20;;;0.20;;
65018;SDS011;66069;51.164;-114.452;2023-03-03T14:54:26;0.15;;;0.10;;
65018;SDS011;66069;51.164;-114.452;2023-03-03T14:56:56;0.10;;;0.10;;
65018;SDS011;66069;51.164;-114.452;2023-03-03T14:59:29;0.17;;;0.10;;
65018;SDS011;66069;51.164;-114.452;2023-03-03T15:02:09;0.35;;;0.13;;
65018;SDS011;66069;51.164;-114.452;2023-03-03T15:04:52;0.25;;;0.10;;
65018;SDS011;66069;51.164;-114.452;2023-03-03T15:07:39;0.10;;;0.10;;
65018;SDS011;66069;51.164;-114.452;2023-03-03T15:10:05;0.20;;;0.10;;
65018;SDS011;66069;51.164;-114.452;2023-03-03T15:25:27;0.20;;;0.10;;
65018;SDS011;66069;51.164;-114.452;2023-03-03T15:36:15;0.10;;;0.10;;
65018;SDS011;66069;51.164;-114.452;2023-03-03T15:44:59;0.13;;;0.10;;
65018;SDS011;66069;51.164;-114.452;2023-03-03T16:01:14;0.10;;;0.10;;
65018;SDS011;66069;51.164;-114.452;2023-03-03T16:03:56;0.10;;;0.10;;
65018;SDS011;66069;51.164;-114.452;2023-03-03T16:06:33;0.05;;;0.05;;
65018;SDS011;66069;51.164;-114.452;2023-03-03T16:17:13;0.10;;;0.10;;
65018;SDS011;66069;51.164;-114.452;2023-03-03T16:36:53;0.10;;;0.10;;
65018;SDS011;66069;51.164;-114.452;2023-03-03T16:39:35;0.10;;;0.10;;
65018;SDS011;66069;51.164;-114.452;2023-03-03T16:45:38;0.10;;;0.10;;
65018;SDS011;66069;51.164;-114.452;2023-03-03T16:48:10;0.17;;;0.17;;
65018;SDS011;66069;51.164;-114.452;2023-03-03T16:51:43;0.10;;;0.10;;
65018;SDS011;66069;51.164;-114.452;2023-03-03T16:59:38;0.10;;;0.10;;
65018;SDS011;66069;51.164;-114.452;2023-03-03T17:05:12;0.00;;;0.00;;
65018;SDS011;66069;51.164;-114.452;2023-03-03T17:10:41;0.22;;;0.15;;
65018;SDS011;66069;51.164;-114.452;2023-03-03T17:13:24;0.10;;;0.10;;
65018;SDS011;66069;51.164;-114.452;2023-03-03T17:19:50;0.20;;;0.20;;
65018;SDS011;66069;51.164;-114.452;2023-03-03T17:33:24;0.10;;;0.10;;
65018;SDS011;66069;51.164;-114.452;2023-03-03T17:44:29;0.10;;;0.10;;
65018;SDS011;66069;51.164;-114.452;2023-03-03T17:47:15;0.10;;;0.10;;
65018;SDS011;66069;51.164;-114.452;2023-03-03T17:50:17;0.10;;;0.10;;
65018;SDS011;66069;51.164;-114.452;2023-03-03T17:58:23;0.13;;;0.10;;
65018;SDS011;66069;51.164;-114.452;2023-03-03T18:01:16;0.10;;;0.10;;
65018;SDS011;66069;51.164;-114.452;2023-03-03T18:09:40;0.20;;;0.10;;
65018;SDS011;66069;51.164;-114.452;2023-03-03T18:21:06;0.13;;;0.10;;
65018;SDS011;66069;51.164;-114.452;2023-03-03T18:23:39;0.32;;;0.10;;
65018;SDS011;66069;51.164;-114.452;2023-03-03T18:36:56;0.03;;;0.03;;
65018;SDS011;66069;51.164;-114.452;2023-03-03T18:39:47;0.20;;;0.10;;
65018;SDS011;66069;51.164;-114.452;2023-03-03T18:44:44;0.00;;;0.00;;
65018;SDS011;66069;51.164;-114.452;2023-03-03T18:47:12;0.10;;;0.10;;
65018;SDS011;66069;51.164;-114.452;2023-03-03T18:52:32;0.40;;;0.17;;
65018;SDS011;66069;51.164;-114.452;2023-03-03T18:55:19;0.10;;;0.10;;
65018;SDS011;66069;51.164;-114.452;2023-03-03T19:01:11;0.10;;;0.10;;
65018;SDS011;66069;51.164;-114.452;2023-03-03T19:09:10;0.10;;;0.10;;
65018;SDS011;66069;51.164;-114.452;2023-03-03T19:11:49;0.10;;;0.10;;
65018;SDS011;66069;51.164;-114.452;2023-03-03T19:16:54;0.25;;;0.10;;
65018;SDS011;66069;51.164;-114.452;2023-03-03T19:19:57;0.17;;;0.10;;
65018;SDS011;66069;51.164;-114.452;2023-03-03T19:22:49;0.70;;;0.10;;
65018;SDS011;66069;51.164;-114.452;2023-03-03T19:25:27;0.10;;;0.10;;
65018;SDS011;66069;51.164;-114.452;2023-03-03T19:38:38;0.10;;;0.10;;
65018;SDS011;66069;51.164;-114.452;2023-03-03T19:57:02;0.03;;;0.03;;
65018;SDS011;66069;51.164;-114.452;2023-03-03T20:09:37;0.25;;;0.10;;
65018;SDS011;66069;51.164;-114.452;2023-03-03T20:12:24;0.40;;;0.20;;
65018;SDS011;66069;51.164;-114.452;2023-03-03T20:17:49;0.40;;;0.20;;
65018;SDS011;66069;51.164;-114.452;2023-03-03T20:26:05;0.25;;;0.10;;
65018;SDS011;66069;51.164;-114.452;2023-03-03T20:29:05;1.27;;;0.30;;
65018;SDS011;66069;51.164;-114.452;2023-03-03T20:31:56;0.75;;;0.30;;
65018;SDS011;66069;51.164;-114.452;2023-03-03T20:35:00;0.70;;;0.28;;
65018;SDS011;66069;51.164;-114.452;2023-03-03T20:37:42;2.17;;;0.32;;
65018;SDS011;66069;51.164;-114.452;2023-03-03T20:46:11;0.52;;;0.30;;
65018;SDS011;66069;51.164;-114.452;2023-03-03T20:59:48;1.20;;;0.30;;
65018;SDS011;66069;51.164;-114.452;2023-03-03T21:02:30;1.38;;;0.20;;
65018;SDS011;66069;51.164;-114.452;2023-03-03T21:05:17;1.00;;;0.30;;
65018;SDS011;66069;51.164;-114.452;2023-03-03T21:07:57;0.55;;;0.20;;
65018;SDS011;66069;51.164;-114.452;2023-03-03T21:10:32;0.32;;;0.20;;
65018;SDS011;66069;51.164;-114.452;2023-03-03T21:15:53;0.57;;;0.20;;
65018;SDS011;66069;51.164;-114.452;2023-03-03T21:18:34;1.42;;;0.30;;
65018;SDS011;66069;51.164;-114.452;2023-03-03T21:21:00;2.35;;;0.30;;
65018;SDS011;66069;51.164;-114.452;2023-03-03T21:23:27;1.75;;;0.30;;
65018;SDS011;66069;51.164;-114.452;2023-03-03T21:25:54;0.70;;;0.17;;
65018;SDS011;66069;51.164;-114.452;2023-03-03T21:28:23;1.25;;;0.17;;
65018;SDS011;66069;51.164;-114.452;2023-03-03T21:39:04;0.70;;;0.30;;
65018;SDS011;66069;51.164;-114.452;2023-03-03T21:42:01;2.70;;;0.40;;
65018;SDS011;66069;51.164;-114.452;2023-03-03T21:44:34;2.67;;;0.40;;
65018;SDS011;66069;51.164;-114.452;2023-03-03T21:47:19;2.20;;;0.50;;
65018;SDS011;66069;51.164;-114.452;2023-03-03T21:49:48;5.65;;;1.30;;
65018;SDS011;66069;51.164;-114.452;2023-03-03T21:52:17;27.58;;;6.85;;
65018;SDS011;66069;51.164;-114.452;2023-03-03T21:54:44;95.43;;;21.05;;
65018;SDS011;66069;51.164;-114.452;2023-03-03T21:57:12;149.20;;;37.90;;
65018;SDS011;66069;51.164;-114.452;2023-03-03T21:59:38;173.43;;;41.85;;
65018;SDS011;66069;51.164;-114.452;2023-03-03T22:02:05;224.45;;;54.47;;
65018;SDS011;66069;51.164;-114.452;2023-03-03T22:04:32;274.83;;;67.75;;
65018;SDS011;66069;51.164;-114.452;2023-03-03T22:06:58;312.30;;;77.10;;
65018;SDS011;66069;51.164;-114.452;2023-03-03T22:09:25;338.58;;;84.25;;
65018;SDS011;66069;51.164;-114.452;2023-03-03T22:11:51;386.90;;;93.05;;
65018;SDS011;66069;51.164;-114.452;2023-03-03T22:14:17;388.25;;;100.32;;
65018;SDS011;66069;51.164;-114.452;2023-03-03T22:16:44;391.88;;;104.53;;
65018;SDS011;66069;51.164;-114.452;2023-03-03T22:19:10;390.98;;;100.53;;
65018;SDS011;66069;51.164;-114.452;2023-03-03T22:21:37;387.70;;;103.55;;
65018;SDS011;66069;51.164;-114.452;2023-03-03T22:24:04;352.95;;;95.72;;
65018;SDS011;66069;51.164;-114.452;2023-03-03T22:26:32;328.80;;;88.47;;